createdAt,value
2024-02-01T00:02:16.511Z,-3.04
2024-02-01T00:04:43.555Z,-3.10
2024-02-01T00:07:10.590Z,-3.08
2024-02-01T00:09:37.995Z,-3.09
2024-02-01T00:12:05.469Z,-3.10
2024-02-01T00:14:32.790Z,-3.10
2024-02-01T00:16:59.915Z,-3.20
2024-02-01T00:19:26.870Z,-3.20
2024-02-01T00:21:53.922Z,-3.33
2024-02-01T00:24:20.897Z,-3.32
2024-02-01T00:26:47.985Z,-3.25
2024-02-01T00:29:15.094Z,-3.19
2024-02-01T00:31:42.153Z,-3.21
2024-02-01T00:34:09.341Z,-3.21
2024-02-01T00:36:36.505Z,-3.36
2024-02-01T00:39:03.485Z,-3.24
2024-02-01T00:41:30.842Z,-3.23
2024-02-01T00:43:57.928Z,-3.27
2024-02-01T00:46:24.874Z,-3.28
2024-02-01T00:48:52.235Z,-3.32
2024-02-01T00:51:19.383Z,-3.29
2024-02-01T00:53:46.641Z,-3.27
2024-02-01T00:56:13.660Z,-3.20
2024-02-01T00:58:40.722Z,-3.16
2024-02-01T01:01:08.004Z,-3.19
2024-02-01T01:03:35.225Z,-3.18
2024-02-01T01:06:02.330Z,-3.28
2024-02-01T01:08:29.521Z,-3.18
2024-02-01T01:10:56.569Z,-3.33
2024-02-01T01:13:23.614Z,-3.25
2024-02-01T01:15:50.526Z,-3.29
2024-02-01T01:18:17.745Z,-3.40
2024-02-01T01:20:44.850Z,-3.42
2024-02-01T01:23:12.370Z,-3.34
2024-02-01T01:25:39.507Z,-3.36
2024-02-01T01:28:06.676Z,-3.29
2024-02-01T01:30:33.723Z,-3.53
2024-02-01T01:33:01.003Z,-3.39
2024-02-01T01:35:28.687Z,-3.51
2024-02-01T01:37:55.729Z,-3.45
2024-02-01T01:40:22.794Z,-3.62
2024-02-01T01:42:49.789Z,-3.51
2024-02-01T01:45:17.081Z,-3.58
2024-02-01T01:47:44.997Z,-3.53
2024-02-01T01:50:12.362Z,-3.60
2024-02-01T01:52:41.901Z,-3.55
2024-02-01T01:55:09.981Z,-3.59
2024-02-01T01:57:39.220Z,-3.61
2024-02-01T02:00:08.468Z,-3.61
2024-02-01T02:02:36.634Z,-3.71
2024-02-01T02:05:04.102Z,-3.69
2024-02-01T02:07:31.074Z,-3.65
2024-02-01T02:10:02.429Z,-3.67
2024-02-01T02:12:29.592Z,-3.61
2024-02-01T02:15:05.155Z,-3.64
2024-02-01T02:17:32.202Z,-3.54
2024-02-01T02:20:17.116Z,-3.59
2024-02-01T02:22:46.776Z,-3.67
2024-02-01T02:25:17.050Z,-3.56
2024-02-01T02:27:44.809Z,-3.64
2024-02-01T02:30:13.531Z,-3.64
2024-02-01T02:32:44.694Z,-3.69
2024-02-01T02:35:17.995Z,-3.66
2024-02-01T02:37:50.500Z,-3.68
2024-02-01T02:40:19.101Z,-3.77
2024-02-01T02:42:46.458Z,-3.83
2024-02-01T02:45:14.827Z,-3.85
2024-02-01T02:47:42.234Z,-3.85
2024-02-01T02:50:10.376Z,-3.90
2024-02-01T02:52:39.426Z,-3.80
2024-02-01T03:30:48.630Z,-4.80
2024-02-01T03:33:15.910Z,-4.72
2024-02-01T03:35:43.768Z,-4.64
2024-02-01T03:38:16.815Z,-4.57
2024-02-01T03:40:44.058Z,-4.46
2024-02-01T03:43:14.118Z,-4.45
2024-02-01T03:45:50.431Z,-4.50
2024-02-01T03:48:18.916Z,-4.38
2024-02-01T03:50:46.219Z,-4.36
2024-02-01T03:53:14.116Z,-4.26
2024-02-01T03:55:43.894Z,-4.22
2024-02-01T03:58:11.920Z,-4.28
2024-02-01T04:00:38.869Z,-4.19
2024-02-01T04:03:06.189Z,-4.27
2024-02-01T04:05:39.653Z,-4.35
2024-02-01T04:08:10.184Z,-4.30
2024-02-01T04:10:38.358Z,-4.35
2024-02-01T04:13:08.470Z,-4.44
2024-02-01T04:15:36.694Z,-4.48
2024-02-01T04:18:05.707Z,-4.38
2024-02-01T04:20:32.980Z,-4.38
2024-02-01T04:23:00.152Z,-4.34
2024-02-01T04:25:27.618Z,-4.27
2024-02-01T04:27:55.885Z,-4.30
2024-02-01T04:30:25.436Z,-4.35
2024-02-01T04:32:53.060Z,-4.24
2024-02-01T04:35:20.136Z,-4.20
2024-02-01T04:37:54.617Z,-4.27
2024-02-01T04:40:24.987Z,-4.23
2024-02-01T04:42:57.469Z,-4.17
2024-02-01T04:45:24.706Z,-4.19
2024-02-01T04:47:51.976Z,-4.18
2024-02-01T04:50:19.011Z,-4.14
2024-02-01T04:52:46.084Z,-4.11
2024-02-01T04:55:13.058Z,-4.12
2024-02-01T04:57:40.587Z,-4.15
2024-02-01T05:00:15.853Z,-4.20
2024-02-01T05:02:43.398Z,-4.25
2024-02-01T05:05:12.162Z,-4.16
2024-02-01T05:07:39.145Z,-4.17
2024-02-01T05:10:08.729Z,-4.20
2024-02-01T05:12:39.505Z,-4.28
2024-02-01T05:15:11.168Z,-4.30
2024-02-01T05:17:38.935Z,-4.33
2024-02-01T05:20:13.583Z,-4.41
2024-02-01T05:22:42.227Z,-4.40
2024-02-01T05:25:24.686Z,-4.41
2024-02-01T05:27:54.553Z,-4.48
2024-02-01T05:30:23.749Z,-4.41
2024-02-01T05:32:56.501Z,-4.46
2024-02-01T05:35:27.040Z,-4.47
2024-02-01T05:37:54.696Z,-4.46
2024-02-01T05:40:23.291Z,-4.55
2024-02-01T05:42:51.254Z,-4.47
2024-02-01T05:45:22.826Z,-4.53
2024-02-01T05:47:53.229Z,-4.54
2024-02-01T05:50:20.825Z,-4.69
2024-02-01T05:52:47.808Z,-4.52
2024-02-01T05:55:15.060Z,-4.53
2024-02-01T05:57:42.689Z,-4.40
2024-02-01T06:00:13.947Z,-4.35
2024-02-01T06:02:41.475Z,-4.45
2024-02-01T06:05:09.086Z,-4.38
2024-02-01T06:07:36.318Z,-4.39
2024-02-01T06:10:04.049Z,-4.36
2024-02-01T06:12:34.610Z,-4.32
2024-02-01T06:15:03.753Z,-4.18
2024-02-01T06:17:31.053Z,-4.16
2024-02-01T06:19:58.437Z,-4.12
2024-02-01T06:22:29.104Z,-3.95
2024-02-01T06:24:56.138Z,-3.94
2024-02-01T06:27:23.780Z,-3.72
2024-02-01T06:29:50.813Z,-3.71
2024-02-01T06:32:23.874Z,-3.73
2024-02-01T06:35:06.872Z,-3.58
2024-02-01T06:37:36.948Z,-3.46
2024-02-01T06:40:22.911Z,-3.42
2024-02-01T06:43:08.439Z,-3.37
2024-02-01T06:45:45.974Z,-3.19
2024-02-01T06:48:13.853Z,-3.09
2024-02-01T06:50:48.150Z,-2.95
2024-02-01T06:53:21.829Z,-2.96
2024-02-01T06:56:07.781Z,-2.97
2024-02-01T06:58:49.520Z,-2.80
2024-02-01T07:01:26.562Z,-2.65
2024-02-01T07:04:17.059Z,-2.56
2024-02-01T07:07:07.938Z,-2.53
2024-02-01T07:09:48.806Z,-2.55
2024-02-01T07:12:40.747Z,-2.51
2024-02-01T07:15:41.133Z,-2.13
2024-02-01T07:18:09.092Z,-1.92
2024-02-01T07:20:38.106Z,-1.68
2024-02-01T07:23:25.392Z,-1.47
2024-02-01T07:26:13.215Z,-1.45
2024-02-01T07:28:58.933Z,-1.33
2024-02-01T07:31:44.436Z,-1.27
2024-02-01T07:34:30.077Z,-1.13
2024-02-01T07:37:15.477Z,-0.97
2024-02-01T07:40:08.974Z,-0.74
2024-02-01T07:42:54.705Z,-0.51
2024-02-01T07:45:40.342Z,-0.23
2024-02-01T07:48:37.090Z,-0.09
2024-02-01T07:51:23.077Z,0.14
2024-02-01T07:54:08.798Z,0.43
2024-02-01T07:56:54.217Z,0.65
2024-02-01T07:59:30.814Z,0.64
2024-02-01T08:02:15.014Z,0.79
2024-02-01T08:05:00.690Z,1.14
2024-02-01T08:07:49.695Z,1.30
2024-02-01T08:10:21.024Z,1.33
2024-02-01T08:12:49.183Z,1.53
2024-02-01T08:15:20.519Z,1.64
2024-02-01T08:17:52.241Z,1.89
2024-02-01T08:20:23.143Z,2.06
2024-02-01T08:22:50.730Z,2.22
2024-02-01T08:25:18.281Z,2.33
2024-02-01T08:27:55.177Z,2.54
2024-02-01T08:30:28.226Z,2.74
2024-02-01T08:32:58.549Z,2.90
2024-02-01T08:35:25.975Z,2.91
2024-02-01T08:37:56.631Z,3.16
2024-02-01T08:40:24.162Z,3.27
2024-02-01T08:43:11.633Z,3.45
2024-02-01T08:45:40.952Z,3.60
2024-02-01T08:48:10.015Z,3.75
2024-02-01T08:50:44.420Z,3.78
2024-02-01T08:53:13.282Z,3.88
2024-02-01T08:55:41.255Z,3.95
2024-02-01T08:58:10.493Z,4.16
2024-02-01T09:00:40.032Z,4.34
2024-02-01T09:03:12.654Z,4.45
2024-02-01T09:05:48.532Z,4.55
2024-02-01T09:08:37.685Z,4.50
2024-02-01T09:11:12.899Z,4.71
2024-02-01T09:13:44.759Z,4.96
2024-02-01T09:16:20.414Z,5.09
2024-02-01T09:18:47.700Z,5.18
2024-02-01T09:21:15.694Z,5.24
2024-02-01T09:23:43.007Z,5.29
2024-02-01T09:26:10.624Z,5.50
2024-02-01T09:28:43.098Z,5.57
2024-02-01T09:31:20.622Z,5.77
2024-02-01T09:33:49.219Z,5.87
2024-02-01T09:36:17.119Z,5.99
2024-02-01T09:38:44.300Z,6.07
2024-02-01T09:41:20.531Z,6.09
2024-02-01T09:43:50.183Z,6.13
2024-02-01T09:46:18.883Z,6.33
2024-02-01T09:48:47.096Z,6.42
2024-02-01T09:51:21.020Z,6.48
2024-02-01T09:53:50.307Z,6.55
2024-02-01T09:56:18.343Z,6.68
2024-02-01T09:58:45.756Z,6.74
2024-02-01T10:01:14.169Z,6.83
2024-02-01T10:03:43.541Z,6.95
2024-02-01T10:06:12.097Z,7.06
2024-02-01T10:08:39.830Z,7.18
2024-02-01T10:11:07.105Z,7.32
2024-02-01T10:13:40.895Z,7.37
2024-02-01T10:16:14.896Z,7.46
2024-02-01T10:18:43.533Z,7.65
2024-02-01T10:21:35.665Z,7.65
2024-02-01T10:24:08.912Z,7.79
2024-02-01T10:26:38.112Z,7.90
2024-02-01T10:29:14.049Z,8.02
2024-02-01T10:31:45.754Z,8.10
2024-02-01T10:34:15.502Z,8.17
2024-02-01T10:36:46.332Z,8.21
2024-02-01T10:39:20.428Z,8.30
2024-02-01T10:41:55.107Z,8.37
2024-02-01T10:44:34.957Z,8.52
2024-02-01T10:47:06.496Z,8.60
2024-02-01T10:49:39.181Z,8.54
2024-02-01T10:52:08.125Z,8.73
2024-02-01T10:54:36.819Z,8.64
2024-02-01T10:57:08.000Z,8.59
2024-02-01T10:59:35.769Z,8.68
2024-02-01T11:02:04.124Z,8.82
2024-02-01T11:04:38.970Z,8.92
2024-02-01T11:07:09.045Z,8.96
2024-02-01T11:09:39.519Z,8.98
2024-02-01T11:12:15.475Z,9.07
2024-02-01T11:14:42.718Z,9.14
2024-02-01T11:17:19.738Z,9.15
2024-02-01T11:19:50.583Z,9.37
2024-02-01T11:22:21.786Z,9.20
2024-02-01T11:24:48.912Z,9.22
2024-02-01T11:27:17.353Z,9.21
2024-02-01T11:29:49.392Z,9.34
2024-02-01T11:32:21.833Z,9.31
2024-02-01T11:34:51.811Z,9.29
2024-02-01T11:37:19.785Z,9.35
2024-02-01T11:39:47.734Z,9.26
2024-02-01T11:42:23.541Z,9.22
2024-02-01T11:45:02.563Z,9.17
2024-02-01T11:47:31.392Z,9.18
2024-02-01T11:49:58.789Z,9.41
2024-02-01T11:52:55.001Z,9.30
2024-02-01T11:57:49.875Z,9.21
2024-02-01T12:00:32.723Z,9.29
2024-02-01T12:03:10.150Z,9.31
2024-02-01T12:05:37.956Z,9.27
2024-02-01T12:08:08.052Z,9.35
2024-02-01T12:10:35.871Z,9.37
2024-02-01T12:13:04.626Z,9.29
2024-02-01T12:15:31.906Z,9.42
2024-02-01T12:18:00.115Z,9.63
2024-02-01T12:20:31.358Z,9.63
2024-02-01T12:22:58.867Z,9.67
2024-02-01T12:25:26.472Z,9.72
2024-02-01T12:27:53.746Z,9.76
2024-02-01T12:30:26.370Z,9.68
2024-02-01T12:32:54.096Z,9.83
2024-02-01T12:35:21.170Z,9.69
2024-02-01T12:37:49.269Z,9.75
2024-02-01T12:40:20.213Z,9.65
2024-02-01T12:42:50.155Z,9.70
2024-02-01T12:45:22.018Z,9.91
2024-02-01T12:47:50.192Z,9.92
2024-02-01T12:50:18.150Z,9.86
2024-02-01T12:52:46.309Z,9.94
2024-02-01T12:55:14.365Z,9.83
2024-02-01T12:57:43.863Z,9.89
2024-02-01T13:00:14.169Z,9.95
2024-02-01T13:02:41.651Z,9.96
2024-02-01T13:05:11.752Z,10.00
2024-02-01T13:07:39.691Z,10.00
2024-02-01T13:10:10.757Z,10.09
2024-02-01T13:12:38.199Z,10.13
2024-02-01T13:15:07.520Z,10.07
2024-02-01T13:17:35.857Z,10.05
2024-02-01T13:20:20.221Z,10.09
2024-02-01T13:22:50.562Z,9.99
2024-02-01T13:25:21.378Z,10.04
2024-02-01T13:27:51.014Z,10.04
2024-02-01T13:30:20.288Z,9.94
2024-02-01T13:32:49.905Z,9.88
2024-02-01T13:35:17.226Z,9.95
2024-02-01T13:37:47.708Z,9.95
2024-02-01T13:40:18.559Z,9.73
2024-02-01T13:42:46.941Z,9.79
2024-02-01T13:45:14.889Z,9.62
2024-02-01T13:47:52.541Z,9.63
2024-02-01T13:50:22.607Z,9.68
2024-02-01T13:52:55.609Z,9.59
2024-02-01T13:55:27.174Z,9.64
2024-02-01T13:57:54.576Z,9.55
2024-02-01T14:00:22.817Z,9.50
2024-02-01T14:02:54.035Z,9.49
2024-02-01T14:05:25.839Z,9.42
2024-02-01T14:07:55.958Z,9.32
2024-02-01T14:10:23.780Z,9.35
2024-02-01T14:12:50.750Z,9.28
2024-02-01T14:15:18.343Z,9.25
2024-02-01T14:17:45.733Z,9.13
2024-02-01T14:20:16.154Z,9.20
2024-02-01T14:22:44.492Z,9.12
2024-02-01T14:25:12.558Z,9.02
2024-02-01T14:27:40.966Z,8.98
2024-02-01T14:30:12.968Z,8.88
2024-02-01T14:32:40.636Z,8.84
2024-02-01T14:35:09.389Z,8.81
2024-02-01T14:37:36.687Z,8.70
2024-02-01T14:40:04.186Z,8.65
2024-02-01T14:42:31.647Z,8.62
2024-02-01T14:44:58.827Z,8.44
2024-02-01T14:47:26.191Z,8.38
2024-02-01T14:49:53.631Z,8.37
2024-02-01T14:52:20.947Z,8.23
2024-02-01T14:54:50.077Z,8.18
2024-02-01T14:57:17.578Z,7.99
2024-02-01T14:59:45.025Z,7.90
2024-02-01T15:02:12.217Z,7.83
2024-02-01T15:04:39.750Z,7.71
2024-02-01T15:07:06.967Z,7.55
2024-02-01T15:09:35.369Z,7.44
2024-02-01T15:12:02.542Z,7.30
2024-02-01T15:14:31.246Z,7.27
2024-02-01T15:16:58.444Z,7.11
2024-02-01T15:19:25.953Z,6.99
2024-02-01T15:21:53.670Z,6.83
2024-02-01T15:24:20.843Z,6.71
2024-02-01T15:26:48.211Z,6.56
2024-02-01T15:29:18.038Z,6.43
2024-02-01T15:31:46.405Z,6.37
2024-02-01T15:34:16.892Z,6.16
2024-02-01T15:36:45.012Z,5.98
2024-02-01T15:39:16.198Z,5.97
2024-02-01T15:41:44.472Z,5.85
2024-02-01T15:44:12.137Z,5.77
2024-02-01T15:46:40.062Z,5.59
2024-02-01T15:49:09.489Z,5.52
2024-02-01T15:51:36.798Z,5.43
2024-02-01T15:54:05.414Z,5.27
2024-02-01T15:56:33.000Z,5.26
2024-02-01T15:59:03.165Z,5.09
2024-02-01T16:01:30.724Z,4.96
2024-02-01T16:04:02.678Z,5.00
2024-02-01T16:06:30.248Z,4.68
2024-02-01T16:09:00.011Z,4.66
2024-02-01T16:11:37.217Z,4.55
2024-02-01T16:14:09.289Z,4.56
2024-02-01T16:16:39.421Z,4.46
2024-02-01T16:19:17.212Z,4.29
2024-02-01T16:21:44.358Z,4.29
2024-02-01T16:24:12.348Z,4.12
2024-02-01T16:26:40.707Z,4.02
2024-02-01T16:29:13.824Z,3.80
2024-02-01T16:31:41.091Z,3.82
2024-02-01T16:34:15.109Z,3.78
2024-02-01T16:36:55.377Z,3.67
2024-02-01T16:39:44.613Z,3.57
2024-02-01T16:42:25.056Z,3.38
2024-02-01T16:44:58.884Z,3.31
2024-02-01T16:47:44.875Z,3.21
2024-02-01T16:50:30.759Z,3.23
2024-02-01T16:53:00.051Z,3.11
2024-02-01T16:55:47.899Z,3.06
2024-02-01T16:58:37.160Z,2.88
2024-02-01T17:01:09.274Z,2.92
2024-02-01T17:03:36.890Z,2.73
2024-02-01T17:06:12.362Z,2.69
2024-02-01T17:08:48.669Z,2.64
2024-02-01T17:11:21.489Z,2.68
2024-02-01T17:13:48.488Z,2.52
2024-02-01T17:16:57.090Z,2.54
2024-02-01T17:19:24.719Z,2.29
2024-02-01T17:21:53.468Z,2.41
2024-02-01T17:24:22.915Z,2.50
2024-02-01T17:26:51.912Z,2.42
2024-02-01T17:29:21.960Z,2.31
2024-02-01T17:31:53.250Z,2.30
2024-02-01T17:34:40.795Z,2.27
2024-02-01T17:37:38.722Z,2.20
2024-02-01T17:40:13.263Z,2.11
2024-02-01T17:42:42.053Z,2.07
2024-02-01T17:45:33.526Z,2.04
2024-02-01T17:48:13.349Z,1.90
2024-02-01T17:50:45.870Z,1.89
2024-02-01T17:53:13.475Z,1.80
2024-02-01T17:55:48.084Z,1.89
2024-02-01T17:58:42.787Z,1.84
2024-02-01T18:02:09.612Z,1.75
2024-02-01T18:04:43.237Z,1.71
2024-02-01T18:07:20.069Z,1.68
2024-02-01T18:09:51.974Z,1.64
2024-02-01T18:12:24.205Z,1.62
2024-02-01T18:14:55.072Z,1.61
2024-02-01T18:17:44.173Z,1.46
2024-02-01T18:20:20.016Z,1.47
2024-02-01T18:22:47.525Z,1.37
2024-02-01T18:25:19.593Z,1.38
2024-02-01T18:27:48.575Z,1.37
2024-02-01T18:30:17.801Z,1.24
2024-02-01T18:32:45.132Z,1.23
2024-02-01T18:35:36.188Z,1.14
2024-02-01T18:38:18.542Z,1.18
2024-02-01T18:40:52.398Z,1.14
2024-02-01T18:43:26.674Z,1.11
2024-02-01T18:45:55.316Z,1.01
2024-02-01T18:48:47.363Z,1.00
2024-02-01T18:51:18.619Z,0.93
2024-02-01T18:53:48.792Z,1.03
2024-02-01T18:56:36.268Z,0.98
2024-02-01T18:59:06.338Z,0.90
2024-02-01T19:01:35.935Z,0.86
2024-02-01T19:07:45.378Z,0.84
2024-02-01T19:11:18.083Z,0.82
2024-02-01T19:14:10.167Z,0.83
2024-02-01T19:16:37.244Z,0.51
2024-02-01T19:19:09.080Z,0.69
2024-02-01T19:21:36.797Z,0.68
2024-02-01T19:24:07.793Z,0.63
2024-02-01T19:26:35.152Z,0.67
2024-02-01T19:29:07.197Z,0.61
2024-02-01T19:31:34.574Z,0.53
2024-02-01T19:34:04.491Z,0.58
2024-02-01T19:36:37.015Z,0.11
2024-02-01T19:41:52.853Z,0.08
2024-02-01T19:44:20.160Z,0.43
2024-02-01T19:46:47.400Z,0.57
2024-02-01T19:49:14.992Z,-0.10
2024-02-01T19:51:47.350Z,0.28
2024-02-01T19:54:14.698Z,0.30
2024-02-01T19:56:42.024Z,0.61
2024-02-01T19:59:09.362Z,0.23
2024-02-01T20:01:36.815Z,0.44
2024-02-01T20:04:04.596Z,0.47
2024-02-01T20:06:32.470Z,-0.10
2024-02-01T20:09:02.544Z,0.39
2024-02-01T20:11:30.852Z,0.15
2024-02-01T20:14:01.060Z,0.20
2024-02-01T20:16:28.782Z,0.43
2024-02-01T20:18:56.984Z,0.28
2024-02-01T20:21:24.814Z,0.24
2024-02-01T20:23:52.581Z,0.29
2024-02-01T20:26:20.304Z,0.36
2024-02-01T20:28:58.666Z,0.40
2024-02-01T20:31:32.701Z,0.24
2024-02-01T20:34:03.254Z,0.40
2024-02-01T20:36:42.438Z,0.42
2024-02-01T20:39:41.201Z,0.49
2024-02-01T20:42:23.590Z,0.29
2024-02-01T20:44:52.723Z,0.48
2024-02-01T20:47:41.208Z,0.32
2024-02-01T20:50:40.326Z,0.45
2024-02-01T20:53:40.860Z,0.44
2024-02-01T20:56:31.535Z,0.19
2024-02-01T20:59:02.993Z,0.35
2024-02-01T21:01:41.810Z,0.38
2024-02-01T21:04:18.184Z,0.41
2024-02-01T21:06:48.370Z,0.46
2024-02-01T21:09:41.541Z,0.47
2024-02-01T21:12:11.047Z,0.48
2024-02-01T21:14:47.652Z,0.58
2024-02-01T21:17:22.221Z,0.48
2024-02-01T21:19:57.439Z,0.62
2024-02-01T21:22:36.072Z,0.57
2024-02-01T21:25:03.405Z,0.56
2024-02-01T21:27:31.617Z,0.54
2024-02-01T21:29:59.285Z,0.56
2024-02-01T21:32:28.420Z,0.61
2024-02-01T21:34:58.609Z,0.50
2024-02-01T21:37:28.011Z,0.49
2024-02-01T21:39:59.313Z,0.54
2024-02-01T21:42:26.442Z,0.55
2024-02-01T21:45:01.859Z,0.53
2024-02-01T21:47:30.564Z,0.52
2024-02-01T21:49:58.209Z,0.30
2024-02-01T21:52:26.142Z,0.34
2024-02-01T21:54:53.502Z,0.43
2024-02-01T21:57:21.728Z,0.32
2024-02-01T21:59:50.437Z,0.48
2024-02-01T22:02:17.775Z,-0.32
2024-02-01T22:04:44.904Z,0.26
2024-02-01T22:07:12.144Z,0.28
2024-02-01T22:09:39.511Z,-0.07
2024-02-01T22:12:06.853Z,0.18
2024-02-01T22:14:34.227Z,-0.11
2024-02-01T22:17:01.363Z,0.34
2024-02-01T22:19:28.603Z,-0.13
2024-02-01T22:21:55.855Z,0.28
2024-02-01T22:24:23.285Z,0.26
2024-02-01T22:26:50.695Z,0.29
2024-02-01T22:29:17.596Z,0.25
2024-02-01T22:31:44.984Z,-0.07
2024-02-01T22:34:12.589Z,0.08
2024-02-01T22:36:40.651Z,-0.05
2024-02-01T22:39:16.527Z,0.14
2024-02-01T22:41:47.647Z,0.16
2024-02-01T22:44:15.319Z,0.17
2024-02-01T22:46:43.342Z,-0.05
2024-02-01T22:49:11.225Z,0.39
2024-02-01T22:51:38.623Z,0.40
2024-02-01T22:54:06.063Z,0.48
2024-02-01T22:56:33.214Z,0.43
2024-02-01T22:59:00.444Z,-0.12
2024-02-01T23:01:27.807Z,0.20
2024-02-01T23:03:58.736Z,0.05
2024-02-01T23:06:26.269Z,0.32
2024-02-01T23:08:53.633Z,-0.36
2024-02-01T23:11:21.000Z,-0.08
2024-02-01T23:13:48.459Z,0.24
2024-02-01T23:16:15.624Z,0.26
2024-02-01T23:18:43.068Z,0.26
2024-02-01T23:21:10.547Z,0.19
2024-02-01T23:23:39.679Z,-0.15
2024-02-01T23:26:07.078Z,0.08
2024-02-01T23:28:34.236Z,0.27
2024-02-01T23:31:01.392Z,-0.07
2024-02-01T23:33:29.176Z,0.39
2024-02-01T23:35:56.431Z,-0.04
2024-02-01T23:38:23.599Z,0.36
2024-02-01T23:40:50.757Z,0.33
2024-02-01T23:43:18.323Z,0.30
2024-02-01T23:45:45.461Z,-0.07
2024-02-01T23:48:12.564Z,0.25
2024-02-01T23:50:41.209Z,0.31
2024-02-01T23:53:08.157Z,0.18
2024-02-01T23:55:35.541Z,0.30
2024-02-01T23:58:02.814Z,0.27
